createdAt,value
2023-04-03T00:01:26.997Z,2.97
2023-04-03T00:03:56.977Z,2.13
2023-04-03T00:06:26.667Z,2.10
2023-04-03T00:08:55.341Z,1.93
2023-04-03T00:11:23.461Z,2.40
2023-04-03T00:13:51.611Z,1.80
2023-04-03T00:16:20.551Z,1.90
2023-04-03T00:18:48.869Z,2.77
2023-04-03T00:21:18.765Z,1.90
2023-04-03T00:23:47.532Z,1.90
2023-04-03T00:26:15.723Z,2.10
2023-04-03T00:28:43.909Z,2.00
2023-04-03T00:31:12.404Z,2.30
2023-04-03T00:33:40.988Z,1.67
2023-04-03T00:36:10.461Z,2.20
2023-04-03T00:38:40.770Z,2.00
2023-04-03T00:41:08.932Z,1.97
2023-04-03T00:43:37.047Z,2.47
2023-04-03T00:46:06.004Z,2.13
2023-04-03T00:48:37.000Z,2.00
2023-04-03T00:51:08.470Z,2.20
2023-04-03T00:53:42.319Z,1.90
2023-04-03T00:56:15.090Z,1.90
2023-04-03T00:58:50.682Z,2.20
2023-04-03T01:01:23.164Z,2.00
2023-04-03T01:03:51.457Z,2.07
2023-04-03T01:06:25.673Z,2.33
2023-04-03T01:08:56.644Z,2.10
2023-04-03T01:11:25.256Z,1.90
2023-04-03T01:13:53.712Z,1.93
2023-04-03T01:16:22.195Z,1.80
2023-04-03T01:18:50.799Z,1.83
2023-04-03T01:21:58.918Z,1.90
2023-04-03T01:24:47.802Z,1.87
2023-04-03T01:27:16.043Z,1.93
2023-04-03T01:29:45.633Z,2.00
2023-04-03T01:32:15.861Z,1.80
2023-04-03T01:34:44.449Z,2.13
2023-04-03T01:37:13.039Z,2.20
2023-04-03T01:39:41.287Z,2.03
2023-04-03T01:42:09.511Z,2.13
2023-04-03T01:44:37.826Z,2.27
2023-04-03T01:47:08.505Z,2.23
2023-04-03T01:49:38.309Z,1.80
2023-04-03T01:52:06.586Z,2.00
2023-04-03T01:54:34.765Z,2.07
2023-04-03T01:57:03.295Z,2.00
2023-04-03T01:59:31.508Z,2.00
2023-04-03T02:01:59.689Z,2.00
2023-04-03T02:04:28.401Z,2.00
2023-04-03T02:06:58.231Z,1.90
2023-04-03T02:09:27.471Z,1.97
2023-04-03T02:11:56.108Z,2.07
2023-04-03T02:14:24.714Z,1.67
2023-04-03T02:16:53.069Z,1.80
2023-04-03T02:19:21.531Z,1.80
2023-04-03T02:21:49.624Z,1.50
2023-04-03T02:24:19.388Z,1.90
2023-04-03T02:26:47.985Z,1.80
2023-04-03T02:29:16.544Z,1.97
2023-04-03T02:31:44.658Z,2.10
2023-04-03T02:34:12.921Z,1.87
2023-04-03T02:36:41.155Z,1.50
2023-04-03T02:39:09.301Z,1.47
2023-04-03T02:41:38.914Z,1.70
2023-04-03T02:44:09.405Z,1.90
2023-04-03T02:46:37.780Z,1.70
2023-04-03T02:49:06.378Z,1.80
2023-04-03T02:51:34.525Z,1.70
2023-04-03T02:54:03.016Z,1.67
2023-04-03T02:56:31.309Z,1.70
2023-04-03T02:59:01.080Z,1.40
2023-04-03T03:01:32.770Z,1.70
2023-04-03T03:04:01.633Z,1.90
2023-04-03T03:06:30.169Z,1.63
2023-04-03T03:08:58.903Z,1.83
2023-04-03T03:11:27.701Z,1.60
2023-04-03T03:13:56.161Z,1.80
2023-04-03T03:16:26.283Z,1.80
2023-04-03T03:18:54.478Z,1.93
2023-04-03T03:21:22.727Z,1.70
2023-04-03T03:23:51.214Z,1.80
2023-04-03T03:26:19.734Z,1.90
2023-04-03T03:28:47.989Z,1.57
2023-04-03T03:31:16.490Z,1.90
2023-04-03T03:33:46.212Z,1.60
2023-04-03T03:36:14.428Z,1.90
2023-04-03T03:38:42.847Z,2.07
2023-04-03T03:41:10.865Z,1.60
2023-04-03T03:43:39.308Z,1.77
2023-04-03T03:46:07.782Z,1.90
2023-04-03T03:48:36.412Z,1.50
2023-04-03T03:51:06.250Z,1.83
2023-04-03T03:53:34.491Z,3.90
2023-04-03T03:56:02.846Z,1.90
2023-04-03T03:58:31.410Z,1.97
2023-04-03T04:01:02.397Z,1.80
2023-04-03T04:03:30.824Z,1.90
2023-04-03T04:05:59.229Z,1.93
2023-04-03T04:08:28.887Z,1.83
2023-04-03T04:10:57.137Z,1.73
2023-04-03T04:13:25.804Z,2.00
2023-04-03T04:15:54.229Z,2.03
2023-04-03T04:18:23.647Z,2.10
2023-04-03T04:20:52.190Z,2.70
2023-04-03T04:23:21.065Z,2.53
2023-04-03T04:25:51.545Z,4.60
2023-04-03T04:28:19.926Z,2.70
2023-04-03T04:30:48.409Z,2.50
2023-04-03T04:33:17.307Z,2.30
2023-04-03T04:35:46.340Z,3.17
2023-04-03T04:38:14.741Z,3.20
2023-04-03T04:40:43.133Z,2.63
2023-04-03T04:43:15.586Z,2.50
2023-04-03T04:45:47.192Z,2.00
2023-04-03T04:48:15.801Z,3.87
2023-04-03T04:50:44.044Z,2.50
2023-04-03T04:53:12.200Z,2.73
2023-04-03T04:55:40.429Z,3.00
2023-04-03T04:58:08.803Z,4.33
2023-04-03T05:00:38.566Z,2.43
2023-04-03T05:03:07.097Z,2.37
2023-04-03T05:05:36.829Z,3.00
2023-04-03T05:08:05.984Z,4.20
2023-04-03T05:10:34.756Z,2.60
2023-04-03T05:13:02.940Z,2.70
2023-04-03T05:15:31.218Z,2.67
2023-04-03T05:18:01.335Z,2.60
2023-04-03T05:20:29.786Z,3.00
2023-04-03T05:23:03.882Z,3.20
2023-04-03T05:25:32.436Z,3.50
2023-04-03T05:28:01.037Z,3.20
2023-04-03T05:30:29.404Z,2.50
2023-04-03T05:32:58.039Z,2.80
2023-04-03T05:35:27.895Z,3.03
2023-04-03T05:37:56.439Z,2.60
2023-04-03T05:40:25.048Z,3.93
2023-04-03T05:42:54.608Z,2.47
2023-04-03T05:45:22.958Z,2.37
2023-04-03T05:47:51.373Z,3.03
2023-04-03T05:50:20.182Z,3.23
2023-04-03T05:52:52.387Z,3.10
2023-04-03T05:55:21.023Z,3.23
2023-04-03T05:57:49.307Z,2.97
2023-04-03T06:00:19.150Z,3.50
2023-04-03T06:02:47.590Z,3.53
2023-04-03T06:05:15.808Z,2.63
2023-04-03T06:07:45.914Z,2.87
2023-04-03T06:10:16.143Z,3.00
2023-04-03T06:12:44.469Z,2.50
2023-04-03T06:15:12.951Z,2.40
2023-04-03T06:17:41.404Z,5.87
2023-04-03T06:20:10.651Z,2.47
2023-04-03T06:22:39.191Z,2.80
2023-04-03T06:25:08.880Z,2.70
2023-04-03T06:27:39.072Z,2.80
2023-04-03T06:30:10.036Z,2.70
2023-04-03T06:32:38.889Z,2.37
2023-04-03T06:35:08.304Z,2.43
2023-04-03T06:37:36.790Z,2.30
2023-04-03T06:40:05.677Z,3.17
2023-04-03T06:42:36.006Z,2.50
2023-04-03T06:45:07.319Z,2.20
2023-04-03T06:47:35.705Z,2.60
2023-04-03T06:50:03.986Z,2.20
2023-04-03T06:52:32.489Z,2.60
2023-04-03T06:55:01.098Z,2.50
2023-04-03T06:57:29.387Z,2.07
2023-04-03T06:59:58.280Z,3.20
2023-04-03T07:02:28.394Z,2.90
2023-04-03T07:04:56.723Z,3.50
2023-04-03T07:07:25.300Z,2.30
2023-04-03T07:09:53.607Z,3.03
2023-04-03T07:12:25.143Z,2.33
2023-04-03T07:14:54.100Z,3.40
2023-04-03T07:17:22.422Z,2.87
2023-04-03T07:19:52.209Z,2.53
2023-04-03T07:22:20.882Z,2.47
2023-04-03T07:24:49.086Z,3.50
2023-04-03T07:27:18.740Z,3.97
2023-04-03T07:29:47.494Z,3.10
2023-04-03T07:32:16.025Z,3.23
2023-04-03T07:34:46.990Z,2.80
2023-04-03T07:37:16.884Z,3.23
2023-04-03T07:39:46.496Z,3.33
2023-04-03T07:42:15.026Z,2.73
2023-04-03T07:44:44.081Z,3.00
2023-04-03T07:47:12.397Z,2.60
2023-04-03T07:49:41.608Z,1.93
2023-04-03T07:52:11.040Z,2.37
2023-04-03T07:54:40.962Z,2.90
2023-04-03T07:57:09.234Z,1.70
2023-04-03T07:59:40.947Z,2.13
2023-04-03T08:02:11.423Z,2.07
2023-04-03T08:04:39.871Z,2.00
2023-04-03T08:07:08.332Z,1.87
2023-04-03T08:09:36.730Z,2.50
2023-04-03T08:12:06.772Z,3.17
2023-04-03T08:14:36.817Z,2.50
2023-04-03T08:17:06.578Z,2.50
2023-04-03T08:19:34.913Z,2.80
2023-04-03T08:22:04.560Z,2.30
2023-04-03T08:24:33.141Z,2.70
2023-04-03T08:27:01.968Z,1.73
2023-04-03T08:29:33.010Z,1.53
2023-04-03T08:32:02.084Z,1.73
2023-04-03T08:34:30.296Z,1.90
2023-04-03T08:36:58.890Z,1.57
2023-04-03T08:39:27.193Z,1.80
2023-04-03T08:41:59.645Z,1.87
2023-04-03T08:44:42.485Z,1.60
2023-04-03T08:47:20.401Z,2.57
2023-04-03T08:49:53.225Z,1.27
2023-04-03T08:52:25.326Z,1.40
2023-04-03T08:54:57.654Z,1.40
2023-04-03T08:57:33.539Z,2.70
2023-04-03T09:00:09.036Z,1.33
2023-04-03T09:02:46.763Z,1.20
2023-04-03T09:05:18.702Z,1.00
2023-04-03T09:07:50.194Z,2.60
2023-04-03T09:10:25.263Z,1.00
2023-04-03T09:13:02.058Z,1.00
2023-04-03T09:15:39.157Z,0.70
2023-04-03T09:18:16.985Z,0.70
2023-04-03T09:20:53.137Z,0.60
2023-04-03T09:23:29.283Z,1.20
2023-04-03T09:26:04.970Z,1.10
2023-04-03T09:28:43.153Z,0.87
2023-04-03T09:31:24.247Z,1.13
2023-04-03T09:33:57.662Z,1.37
2023-04-03T09:36:40.805Z,1.00
2023-04-03T09:39:14.578Z,1.10
2023-04-03T09:41:43.874Z,1.07
2023-04-03T09:44:26.245Z,1.10
2023-04-03T09:46:57.557Z,0.90
2023-04-03T09:49:25.865Z,1.10
2023-04-03T09:51:54.905Z,1.00
2023-04-03T09:54:37.171Z,1.17
2023-04-03T09:57:11.311Z,1.20
2023-04-03T09:59:44.832Z,1.13
2023-04-03T10:02:37.103Z,0.80
2023-04-03T10:05:10.050Z,1.00
2023-04-03T10:07:44.459Z,0.90
2023-04-03T10:10:26.816Z,0.97
2023-04-03T10:13:09.177Z,0.93
2023-04-03T10:15:44.779Z,3.83
2023-04-03T10:18:31.696Z,0.90
2023-04-03T10:21:06.189Z,0.90
2023-04-03T10:23:43.631Z,0.97
2023-04-03T10:26:18.877Z,1.10
2023-04-03T10:28:55.431Z,1.30
2023-04-03T10:31:30.466Z,1.10
2023-04-03T10:34:08.304Z,1.53
2023-04-03T10:36:44.498Z,1.40
2023-04-03T10:39:24.727Z,1.80
2023-04-03T10:42:16.719Z,1.33
2023-04-03T10:45:02.442Z,1.80
2023-04-03T10:47:39.374Z,1.33
2023-04-03T10:50:28.160Z,1.50
2023-04-03T10:53:03.927Z,1.50
2023-04-03T10:55:39.228Z,1.50
2023-04-03T10:58:09.591Z,1.30
2023-04-03T11:00:43.853Z,1.37
2023-04-03T11:03:19.190Z,1.43
2023-04-03T11:05:53.958Z,1.67
2023-04-03T11:08:29.142Z,1.17
2023-04-03T11:11:02.266Z,1.30
2023-04-03T11:13:37.562Z,1.13
2023-04-03T11:16:08.029Z,1.33
2023-04-03T11:18:42.565Z,1.23
2023-04-03T11:21:17.428Z,1.20
2023-04-03T11:23:49.906Z,1.27
2023-04-03T11:26:22.018Z,1.33
2023-04-03T11:28:56.601Z,1.30
2023-04-03T11:31:42.861Z,1.20
2023-04-03T11:34:23.880Z,0.90
2023-04-03T11:36:57.714Z,1.23
2023-04-03T11:39:30.687Z,1.00
2023-04-03T11:42:17.071Z,0.97
2023-04-03T11:44:45.797Z,0.80
2023-04-03T11:47:34.917Z,2.53
2023-04-03T11:50:05.604Z,1.00
2023-04-03T11:53:04.093Z,2.90
2023-04-03T11:55:56.326Z,0.80
2023-04-03T11:58:26.314Z,0.90
2023-04-03T12:01:00.809Z,1.00
2023-04-03T12:04:08.218Z,1.00
2023-04-03T12:07:14.983Z,1.23
2023-04-03T12:10:31.088Z,1.07
2023-04-03T12:13:05.570Z,1.10
2023-04-03T12:15:54.452Z,1.00
2023-04-03T12:19:04.200Z,0.80
2023-04-03T12:22:10.414Z,0.80
2023-04-03T12:24:41.761Z,0.83
2023-04-03T12:27:31.394Z,0.80
2023-04-03T12:30:11.025Z,0.80
2023-04-03T12:33:11.885Z,0.80
2023-04-03T12:35:50.906Z,1.00
2023-04-03T12:38:46.833Z,0.63
2023-04-03T12:41:25.035Z,1.00
2023-04-03T12:44:10.728Z,1.00
2023-04-03T12:46:42.124Z,0.90
2023-04-03T12:49:33.487Z,0.90
2023-04-03T12:52:02.755Z,1.40
2023-04-03T12:54:35.084Z,1.00
2023-04-03T12:57:13.587Z,0.93
2023-04-03T12:59:44.965Z,1.00
2023-04-03T13:02:24.531Z,1.07
2023-04-03T13:04:53.689Z,0.90
2023-04-03T13:07:27.277Z,1.00
2023-04-03T13:10:00.877Z,0.97
2023-04-03T13:12:32.200Z,0.97
2023-04-03T13:15:06.828Z,1.30
2023-04-03T13:17:41.438Z,1.20
2023-04-03T13:20:22.043Z,2.10
2023-04-03T13:22:55.272Z,2.50
2023-04-03T13:25:26.856Z,1.50
2023-04-03T13:28:06.458Z,1.37
2023-04-03T13:30:43.702Z,0.90
2023-04-03T13:33:24.257Z,1.57
2023-04-03T13:35:59.356Z,1.33
2023-04-03T13:38:32.565Z,0.77
2023-04-03T13:41:03.789Z,1.10
2023-04-03T13:43:34.317Z,1.10
2023-04-03T13:46:08.668Z,1.20
2023-04-03T13:48:43.848Z,0.70
2023-04-03T13:51:23.688Z,1.10
2023-04-03T13:53:54.599Z,0.90
2023-04-03T13:56:28.967Z,0.90
2023-04-03T13:59:01.555Z,1.30
2023-04-03T14:01:43.800Z,1.20
2023-04-03T14:04:19.806Z,0.93
2023-04-03T14:06:49.168Z,0.90
2023-04-03T14:09:18.721Z,1.00
2023-04-03T14:11:48.603Z,1.27
2023-04-03T14:14:20.447Z,1.00
2023-04-03T14:16:55.405Z,1.10
2023-04-03T14:19:26.614Z,1.63
2023-04-03T14:21:58.536Z,2.00
2023-04-03T14:24:26.911Z,1.00
2023-04-03T14:26:56.720Z,0.90
2023-04-03T14:29:26.075Z,0.80
2023-04-03T14:32:07.820Z,1.40
2023-04-03T14:34:42.671Z,1.80
2023-04-03T14:37:14.118Z,1.00
2023-04-03T14:39:43.200Z,1.40
2023-04-03T14:42:15.816Z,0.87
2023-04-03T14:44:44.262Z,0.90
2023-04-03T14:47:27.854Z,1.10
2023-04-03T14:50:00.002Z,0.90
2023-04-03T14:52:31.218Z,1.00
2023-04-03T14:54:59.750Z,1.07
2023-04-03T14:57:30.443Z,0.83
2023-04-03T14:59:58.584Z,1.03
2023-04-03T15:02:32.017Z,1.60
2023-04-03T15:05:01.843Z,0.90
2023-04-03T15:07:32.537Z,0.80
2023-04-03T15:10:02.363Z,1.20
2023-04-03T15:12:30.870Z,1.43
2023-04-03T15:15:02.825Z,1.33
2023-04-03T15:17:33.777Z,1.70
2023-04-03T15:20:02.520Z,1.50
2023-04-03T15:22:30.858Z,1.00
2023-04-03T15:24:59.345Z,1.10
2023-04-03T15:27:27.797Z,5.17
2023-04-03T15:29:56.393Z,1.53
2023-04-03T15:32:25.213Z,1.00
2023-04-03T15:34:56.847Z,1.80
2023-04-03T15:37:26.029Z,0.90
2023-04-03T15:39:54.308Z,0.90
2023-04-03T15:42:22.789Z,0.93
2023-04-03T15:44:51.268Z,1.00
2023-04-03T15:47:19.554Z,1.20
2023-04-03T15:49:47.862Z,1.20
2023-04-03T15:52:17.888Z,1.80
2023-04-03T15:54:46.317Z,1.40
2023-04-03T15:57:14.721Z,1.10
2023-04-03T15:59:43.246Z,0.90
2023-04-03T16:02:14.134Z,0.97
2023-04-03T16:04:42.700Z,1.30
2023-04-03T16:07:11.167Z,1.60
2023-04-03T16:09:40.693Z,1.50
2023-04-03T16:12:08.817Z,1.00
2023-04-03T16:14:37.330Z,1.10
2023-04-03T16:17:05.728Z,0.90
2023-04-03T16:19:34.140Z,1.00
2023-04-03T16:22:02.835Z,1.43
2023-04-03T16:24:33.176Z,1.30
2023-04-03T16:27:02.826Z,1.30
2023-04-03T16:29:31.072Z,1.30
2023-04-03T16:32:03.763Z,1.37
2023-04-03T16:34:33.570Z,1.20
2023-04-03T16:37:02.472Z,1.47
2023-04-03T16:39:30.652Z,1.00
2023-04-03T16:41:59.078Z,0.90
2023-04-03T16:44:28.950Z,1.03
2023-04-03T16:46:57.321Z,0.97
2023-04-03T16:49:31.353Z,1.00
2023-04-03T16:51:59.862Z,0.90
2023-04-03T16:54:28.566Z,2.07
2023-04-03T16:56:57.110Z,1.10
2023-04-03T16:59:25.647Z,1.60
2023-04-03T17:01:55.470Z,1.10
2023-04-03T17:04:24.264Z,1.13
2023-04-03T17:06:53.083Z,1.10
2023-04-03T17:09:24.027Z,1.40
2023-04-03T17:11:52.271Z,1.50
2023-04-03T17:14:20.747Z,1.50
2023-04-03T17:16:49.613Z,1.77
2023-04-03T17:19:22.130Z,1.20
2023-04-03T17:21:50.668Z,1.40
2023-04-03T17:24:19.801Z,1.07
2023-04-03T17:26:48.033Z,1.30
2023-04-03T17:29:16.760Z,1.00
2023-04-03T17:31:44.966Z,1.20
2023-04-03T17:34:13.719Z,0.90
2023-04-03T17:36:43.578Z,1.10
2023-04-03T17:39:12.266Z,1.00
2023-04-03T17:41:41.420Z,1.70
2023-04-03T17:44:10.110Z,1.40
2023-04-03T17:46:38.503Z,1.30
2023-04-03T17:49:06.884Z,1.70
2023-04-03T17:51:35.523Z,1.80
2023-04-03T17:54:05.195Z,1.93
2023-04-03T17:56:34.170Z,2.20
2023-04-03T17:59:02.875Z,2.07
2023-04-03T18:01:33.798Z,1.90
2023-04-03T18:04:10.551Z,1.40
2023-04-03T18:06:41.777Z,1.50
2023-04-03T18:09:15.478Z,1.50
2023-04-03T18:11:46.938Z,1.43
2023-04-03T18:14:21.127Z,1.57
2023-04-03T18:16:49.489Z,1.30
2023-04-03T18:22:09.915Z,2.00
2023-04-03T18:24:41.412Z,1.40
2023-04-03T18:27:14.190Z,1.40
2023-04-03T18:29:45.241Z,1.37
2023-04-03T18:32:16.271Z,1.40
2023-04-03T18:34:44.883Z,1.23
2023-04-03T18:37:13.303Z,1.50
2023-04-03T18:39:43.248Z,1.80
2023-04-03T18:42:15.952Z,1.80
2023-04-03T18:44:46.292Z,2.00
2023-04-03T18:47:15.229Z,2.10
2023-04-03T18:49:44.965Z,1.80
2023-04-03T18:52:14.085Z,2.43
2023-04-03T18:54:44.246Z,1.40
2023-04-03T18:57:12.422Z,1.53
2023-04-03T18:59:40.705Z,1.50
2023-04-03T19:02:10.900Z,1.80
2023-04-03T19:04:39.185Z,1.80
2023-04-03T19:07:13.614Z,1.77
2023-04-03T19:09:43.423Z,1.50
2023-04-03T19:12:11.837Z,1.47
2023-04-03T19:14:42.502Z,1.60
2023-04-03T19:17:21.801Z,2.03
2023-04-03T19:19:50.118Z,1.80
2023-04-03T19:22:18.738Z,1.40
2023-04-03T19:24:48.501Z,1.40
2023-04-03T19:27:20.767Z,1.90
2023-04-03T19:29:58.293Z,2.47
2023-04-03T19:32:33.068Z,2.30
2023-04-03T19:35:07.348Z,1.70
2023-04-03T19:37:35.756Z,1.80
2023-04-03T19:40:06.988Z,2.70
2023-04-03T19:42:37.166Z,2.30
2023-04-03T19:45:06.016Z,1.97
2023-04-03T19:47:35.717Z,1.77
2023-04-03T19:50:04.059Z,2.10
2023-04-03T19:52:32.327Z,1.53
2023-04-03T19:55:01.228Z,1.80
2023-04-03T19:57:31.300Z,1.90
2023-04-03T19:59:59.551Z,2.83
2023-04-03T20:02:27.951Z,2.50
2023-04-03T20:04:56.406Z,1.93
2023-04-03T20:07:25.452Z,2.07
2023-04-03T20:09:53.675Z,3.70
2023-04-03T20:12:21.924Z,1.83
2023-04-03T20:14:51.926Z,3.63
2023-04-03T20:17:20.299Z,2.00
2023-04-03T20:19:48.471Z,2.27
2023-04-03T20:22:16.691Z,2.30
2023-04-03T20:24:44.888Z,2.00
2023-04-03T20:27:13.461Z,2.00
2023-04-03T20:29:41.679Z,1.80
2023-04-03T20:32:12.174Z,1.63
2023-04-03T20:34:40.598Z,1.43
2023-04-03T20:37:10.346Z,1.67
2023-04-03T20:39:38.752Z,1.60
2023-04-03T20:42:07.254Z,1.33
2023-04-03T20:44:35.597Z,1.80
2023-04-03T20:47:04.029Z,1.30
2023-04-03T20:49:34.035Z,1.47
2023-04-03T20:52:02.465Z,2.00
2023-04-03T20:54:30.547Z,1.30
2023-04-03T20:56:59.209Z,2.00
2023-04-03T20:59:27.635Z,1.43
2023-04-03T21:01:56.521Z,1.80
2023-04-03T21:04:30.624Z,1.90
2023-04-03T21:07:37.862Z,4.00
2023-04-03T21:10:43.795Z,4.87
2023-04-03T21:13:49.491Z,2.00
2023-04-03T21:16:17.394Z,1.47
2023-04-03T21:19:06.116Z,1.60
2023-04-03T21:21:36.515Z,2.57
2023-04-03T21:24:09.953Z,1.67
2023-04-03T21:26:39.585Z,1.80
2023-04-03T21:29:08.855Z,1.57
2023-04-03T21:31:54.349Z,1.77
2023-04-03T21:34:25.983Z,2.80
2023-04-03T21:36:54.184Z,2.33
2023-04-03T21:39:23.552Z,3.20
2023-04-03T21:41:52.667Z,3.03
2023-04-03T21:44:20.878Z,2.43
2023-04-03T21:46:53.854Z,2.83
2023-04-03T21:49:24.658Z,2.80
2023-04-03T21:51:52.865Z,2.13
2023-04-03T21:54:21.611Z,1.60
2023-04-03T21:56:49.762Z,1.40
2023-04-03T21:59:18.362Z,1.60
2023-04-03T22:01:46.786Z,1.50
2023-04-03T22:04:15.719Z,1.30
2023-04-03T22:06:46.038Z,1.50
2023-04-03T22:09:14.346Z,1.50
2023-04-03T22:11:46.196Z,1.73
2023-04-03T22:14:14.562Z,1.60
2023-04-03T22:16:46.888Z,1.60
2023-04-03T22:19:15.333Z,1.40
2023-04-03T22:21:44.801Z,1.37
2023-04-03T22:24:13.533Z,1.50
2023-04-03T22:26:44.635Z,1.70
2023-04-03T22:29:13.347Z,1.70
2023-04-03T22:31:42.572Z,1.70
2023-04-03T22:34:11.174Z,1.60
2023-04-03T22:36:39.220Z,1.60
2023-04-03T22:39:10.513Z,1.33
2023-04-03T22:41:38.941Z,1.50
2023-04-03T22:44:07.027Z,1.43
2023-04-03T22:46:35.762Z,1.50
2023-04-03T22:49:04.046Z,1.60
2023-04-03T22:51:32.185Z,1.53
2023-04-03T22:54:00.356Z,1.60
2023-04-03T22:56:30.310Z,1.63
2023-04-03T22:58:58.578Z,2.00
2023-04-03T23:01:27.076Z,1.83
2023-04-03T23:03:55.615Z,1.77
2023-04-03T23:06:23.808Z,1.90
2023-04-03T23:08:52.170Z,1.60
2023-04-03T23:11:20.724Z,1.83
2023-04-03T23:13:50.300Z,1.70
2023-04-03T23:16:18.782Z,1.73
2023-04-03T23:18:47.583Z,1.70
2023-04-03T23:21:15.672Z,1.80
2023-04-03T23:23:43.856Z,1.60
2023-04-03T23:26:12.552Z,1.50
2023-04-03T23:28:42.009Z,1.90
2023-04-03T23:31:12.032Z,1.67
2023-04-03T23:33:43.857Z,1.57
2023-04-03T23:36:15.951Z,1.70
2023-04-03T23:38:44.371Z,1.60
2023-04-03T23:41:12.986Z,1.93
2023-04-03T23:43:42.491Z,2.00
2023-04-03T23:46:12.208Z,1.93
2023-04-03T23:48:40.348Z,1.70
2023-04-03T23:51:08.523Z,1.73
2023-04-03T23:53:36.736Z,1.80
2023-04-03T23:56:09.879Z,1.80
2023-04-03T23:58:38.115Z,1.63
